Time;durP1;ratioP1;P1;durP2;ratioP2;P2;SDS_P1;SDS_P2;PMS_P1;PMS_P2;Temp;Humidity;BMP_temperature;BMP_pressure;BME280_temperature;BME280_humidity;BME280_pressure;Samples;Min_cycle;Max_cycle;Signal;HPM_P1;HPM_P2
2023/10/12 00:01:57;;;;;;;10.20;4.55;;;16.50;99.90;;;;;;5044852;28;20032;-67
2023/10/12 00:04:28;;;;;;;11.60;3.97;;;16.50;99.90;;;;;;5045272;28;20037;-66
2023/10/12 00:06:55;;;;;;;8.85;4.07;;;16.30;99.90;;;;;;5044294;28;20033;-66
2023/10/12 00:09:25;;;;;;;9.40;4.18;;;16.20;99.90;;;;;;5045260;28;20462;-66
2023/10/12 00:12:07;;;;;;;14.15;5.13;;;16.10;99.90;;;;;;5045059;28;20080;-66
2023/10/12 00:14:33;;;;;;;11.43;4.43;;;16.00;99.90;;;;;;5044205;28;20036;-67
2023/10/12 00:16:59;;;;;;;8.38;4.38;;;15.90;99.90;;;;;;5041973;28;20104;-66
2023/10/12 00:19:25;;;;;;;9.63;4.95;;;15.80;99.90;;;;;;5044731;28;20550;-67
2023/10/12 00:22:00;;;;;;;11.02;4.93;;;15.70;99.90;;;;;;5044249;28;20163;-67
2023/10/12 00:24:26;;;;;;;7.90;4.53;;;15.60;99.90;;;;;;5044774;28;20405;-67
2023/10/12 00:26:53;;;;;;;11.63;4.35;;;15.50;99.90;;;;;;5045265;28;20033;-67
2023/10/12 00:29:19;;;;;;;10.43;4.30;;;15.40;99.90;;;;;;5043220;28;20158;-68
2023/10/12 00:31:49;;;;;;;6.28;3.60;;;15.30;99.90;;;;;;5046063;28;20104;-68
2023/10/12 00:34:15;;;;;;;12.75;5.18;;;15.20;99.90;;;;;;5039523;28;20029;-67
2023/10/12 00:36:45;;;;;;;10.60;4.30;;;15.10;99.90;;;;;;5043668;28;20549;-68
2023/10/12 00:39:11;;;;;;;7.28;4.22;;;15.10;99.90;;;;;;5047835;28;20033;-67
2023/10/12 00:41:44;;;;;;;12.05;4.65;;;15.00;99.90;;;;;;5053925;28;20035;-67
2023/10/12 00:44:12;;;;;;;9.63;4.82;;;15.00;99.90;;;;;;5048787;28;20121;-67
2023/10/12 00:49:22;;;;;;;7.32;4.22;;;14.80;99.90;;;;;;5048183;28;20045;-67
2023/10/12 00:51:53;;;;;;;12.50;4.60;;;14.70;99.90;;;;;;5051494;28;20111;-67
2023/10/12 00:57:05;;;;;;;9.48;4.70;;;14.70;99.90;;;;;;5047600;28;20060;-67
2023/10/12 00:59:34;;;;;;;7.97;4.60;;;14.60;99.90;;;;;;5050342;28;20501;-67
2023/10/12 01:02:11;;;;;;;7.70;4.25;;;14.50;99.90;;;;;;5049553;28;20032;-67
2023/10/12 01:04:41;;;;;;;8.07;4.47;;;14.50;99.90;;;;;;5051139;28;20042;-67
2023/10/12 01:07:19;;;;;;;13.13;5.15;;;14.40;99.90;;;;;;5051093;28;20025;-67
2023/10/12 01:09:47;;;;;;;10.68;4.22;;;14.40;99.90;;;;;;5048530;28;20116;-67
2023/10/12 01:12:13;;;;;;;6.93;4.80;;;14.40;99.90;;;;;;5050370;28;20131;-67
2023/10/12 01:14:43;;;;;;;8.80;4.20;;;14.40;99.90;;;;;;5049768;28;20154;-67
2023/10/12 01:17:24;;;;;;;7.20;4.95;;;14.40;99.90;;;;;;5051712;28;20992;-67
2023/10/12 01:19:51;;;;;;;16.17;5.55;;;14.40;99.90;;;;;;5050712;28;20121;-66
2023/10/12 01:22:25;;;;;;;14.90;5.15;;;14.40;99.90;;;;;;5051793;28;20542;-67
2023/10/12 01:27:21;;;;;;;9.75;4.68;;;14.40;99.90;;;;;;5035855;28;20098;-67
2023/10/12 01:29:51;;;;;;;10.05;5.22;;;14.40;99.90;;;;;;5049178;28;20079;-67
2023/10/12 01:34:51;;;;;;;11.05;5.00;;;14.30;99.90;;;;;;5051750;28;20029;-66
2023/10/12 01:37:23;;;;;;;8.40;4.50;;;14.30;99.90;;;;;;5048570;28;20438;-66
2023/10/12 01:45:07;;;;;;;11.45;5.03;;;14.20;99.90;;;;;;5051319;28;20037;-66
2023/10/12 01:47:37;;;;;;;8.95;4.68;;;14.10;99.90;;;;;;5052951;28;20021;-67
2023/10/12 01:50:05;;;;;;;12.73;5.20;;;14.10;99.90;;;;;;5053759;28;20041;-66
2023/10/12 01:52:32;;;;;;;12.88;5.30;;;14.00;99.90;;;;;;5054321;28;20036;-67
2023/10/12 01:54:58;;;;;;;10.88;5.72;;;13.90;99.90;;;;;;5054139;28;20120;-67
2023/10/12 01:57:32;;;;;;;10.68;5.47;;;13.90;99.90;;;;;;5051481;28;20029;-67
2023/10/12 01:59:58;;;;;;;8.57;5.45;;;13.80;99.90;;;;;;5049347;28;20086;-67
2023/10/12 02:02:24;;;;;;;12.57;6.22;;;13.80;99.90;;;;;;5054378;28;20028;-67
2023/10/12 02:04:51;;;;;;;14.75;5.47;;;13.70;99.90;;;;;;5051877;28;20544;-67
2023/10/12 02:07:17;;;;;;;12.55;5.30;;;13.70;99.90;;;;;;5037073;28;20049;-67
2023/10/12 02:09:44;;;;;;;10.95;5.60;;;13.60;99.90;;;;;;5052533;28;20482;-67
2023/10/12 02:12:12;;;;;;;10.90;5.32;;;13.60;99.90;;;;;;5053615;28;20029;-67
2023/10/12 02:14:40;;;;;;;16.15;5.75;;;13.60;99.90;;;;;;5052970;28;20159;-67
2023/10/12 02:17:08;;;;;;;9.98;5.30;;;13.60;99.90;;;;;;5055771;28;20025;-67
2023/10/12 02:19:43;;;;;;;18.63;6.13;;;13.50;99.90;;;;;;5049422;28;20458;-67
2023/10/12 02:22:19;;;;;;;10.60;5.03;;;13.50;99.90;;;;;;5051985;28;20744;-67
2023/10/12 02:24:52;;;;;;;10.32;5.78;;;13.50;99.90;;;;;;5051700;28;20037;-67
2023/10/12 02:27:18;;;;;;;9.40;4.75;;;13.50;99.90;;;;;;5056158;28;20037;-67
2023/10/12 02:29:48;;;;;;;10.50;5.20;;;13.40;99.90;;;;;;5054367;28;20017;-67
2023/10/12 02:32:24;;;;;;;10.00;6.07;;;13.40;99.90;;;;;;5049653;28;20036;-67
2023/10/12 02:34:59;;;;;;;9.73;6.15;;;13.40;99.90;;;;;;5053463;28;20033;-67
2023/10/12 02:37:27;;;;;;;13.05;6.40;;;13.40;99.90;;;;;;5050835;28;20091;-68
2023/10/12 02:39:54;;;;;;;14.43;6.13;;;13.30;99.90;;;;;;5053680;28;20021;-67
2023/10/12 02:42:22;;;;;;;12.38;6.15;;;13.30;99.90;;;;;;5051999;28;20033;-67
2023/10/12 02:47:23;;;;;;;10.25;5.05;;;13.30;99.90;;;;;;5050101;28;20390;-67
2023/10/12 02:50:00;;;;;;;16.25;5.75;;;13.30;99.90;;;;;;5053072;28;20029;-67
2023/10/12 02:52:30;;;;;;;7.25;5.07;;;13.30;99.90;;;;;;5052269;28;20086;-67
2023/10/12 02:54:56;;;;;;;;;;;13.30;99.90;;;;;;5052633;28;20028;-67
2023/10/12 02:57:27;;;;;;;9.43;5.30;;;13.30;99.90;;;;;;5051931;28;20015;-67
2023/10/12 03:00:05;;;;;;;11.27;6.28;;;13.30;99.90;;;;;;5051294;28;20489;-67
2023/10/12 03:02:34;;;;;;;8.13;5.50;;;13.30;99.90;;;;;;5053442;28;20020;-68
2023/10/12 03:05:06;;;;;;;12.05;5.57;;;13.30;99.90;;;;;;5051513;28;20123;-67
2023/10/12 03:07:37;;;;;;;8.82;5.28;;;13.30;99.90;;;;;;5055821;28;20039;-67
2023/10/12 03:10:15;;;;;;;8.70;6.03;;;13.30;99.90;;;;;;5050301;28;20029;-67
2023/10/12 03:12:43;;;;;;;9.23;5.65;;;13.30;99.90;;;;;;5051798;28;20025;-67
2023/10/12 03:15:15;;;;;;;11.02;5.38;;;13.30;99.90;;;;;;5052686;28;20528;-68
2023/10/12 03:17:54;;;;;;;8.82;5.57;;;13.30;99.90;;;;;;5056564;28;20034;-67
2023/10/12 03:20:22;;;;;;;9.40;5.40;;;13.40;99.90;;;;;;5060223;28;20028;-68
2023/10/12 03:22:58;;;;;;;6.82;4.93;;;13.30;99.90;;;;;;5064242;28;20078;-66
2023/10/12 03:25:42;;;;;;;9.25;6.25;;;13.40;99.90;;;;;;5056201;28;20041;-66
2023/10/12 03:28:29;;;;;;;8.45;5.72;;;13.30;99.90;;;;;;5062670;28;20077;-66
2023/10/12 03:31:11;;;;;;;10.65;5.35;;;13.40;99.90;;;;;;5042557;28;20099;-66
2023/10/12 03:33:39;;;;;;;9.57;5.38;;;13.40;99.90;;;;;;5047704;28;20064;-66
2023/10/12 03:36:22;;;;;;;11.63;5.85;;;13.40;99.90;;;;;;5057878;28;20020;-66
2023/10/12 03:39:06;;;;;;;10.63;5.68;;;13.50;99.90;;;;;;5045194;28;20429;-67
2023/10/12 03:41:49;;;;;;;9.95;5.53;;;13.50;99.90;;;;;;5037818;28;20063;-66
2023/10/12 03:44:33;;;;;;;10.60;5.32;;;13.60;99.90;;;;;;5059260;28;20045;-66
2023/10/12 03:47:05;;;;;;;8.57;5.28;;;13.60;99.90;;;;;;5049833;28;20036;-67
2023/10/12 03:49:32;;;;;;;8.80;4.93;;;13.70;99.90;;;;;;5035390;28;20114;-67
2023/10/12 03:52:07;;;;;;;11.60;5.65;;;13.70;99.90;;;;;;5056880;28;20036;-67
2023/10/12 03:54:33;;;;;;;8.25;4.88;;;13.80;99.90;;;;;;5053872;28;20083;-67
2023/10/12 03:57:19;;;;;;;10.95;5.57;;;13.90;99.90;;;;;;5061299;28;20478;-67
2023/10/12 04:02:41;;;;;;;7.57;5.13;;;14.00;99.90;;;;;;5056873;28;20044;-67
2023/10/12 04:05:36;;;;;;;11.13;6.00;;;14.00;99.90;;;;;;5059543;28;20028;-67
2023/10/12 04:18:46;;;;;;;7.22;5.25;;;13.90;99.90;;;;;;5057682;28;20040;-68
2023/10/12 04:21:18;;;;;;;8.32;5.50;;;13.80;99.90;;;;;;5052192;28;20028;-67
2023/10/12 04:24:27;;;;;;;12.25;5.43;;;13.80;99.90;;;;;;5057402;28;20039;-67
2023/10/12 04:29:13;;;;;;;11.88;5.28;;;13.70;99.90;;;;;;5064852;28;20035;-68
2023/10/12 04:34:11;;;;;;;9.48;4.93;;;13.80;99.90;;;;;;5056024;28;20032;-68
2023/10/12 04:39:27;;;;;;;10.32;5.32;;;13.80;99.90;;;;;;5058803;28;20056;-67
2023/10/12 04:42:20;;;;;;;11.55;5.15;;;13.90;99.90;;;;;;5053354;28;20119;-67
2023/10/12 04:47:35;;;;;;;11.93;4.82;;;13.90;99.90;;;;;;5068551;28;20032;-67
2023/10/12 04:50:04;;;;;;;8.85;5.40;;;13.90;99.90;;;;;;5056379;28;20028;-67
2023/10/12 04:52:33;;;;;;;7.40;4.40;;;13.90;99.90;;;;;;5058753;28;20182;-67
2023/10/12 04:55:06;;;;;;;6.32;4.70;;;13.90;99.90;;;;;;5055521;28;20034;-67
2023/10/12 04:57:34;;;;;;;8.82;5.38;;;13.90;99.90;;;;;;5057549;28;20051;-67
2023/10/12 05:07:56;;;;;;;8.88;5.13;;;14.00;99.90;;;;;;5059478;28;20024;-67
2023/10/12 05:10:27;;;;;;;9.45;5.57;;;14.00;99.90;;;;;;5050743;28;20029;-67
2023/10/12 05:13:05;;;;;;;6.38;5.13;;;14.00;99.90;;;;;;5053773;28;20115;-67
2023/10/12 05:15:42;;;;;;;8.82;5.47;;;14.00;99.90;;;;;;5049817;28;20087;-67
2023/10/12 05:18:11;;;;;;;9.95;5.10;;;14.00;99.90;;;;;;5058619;28;20036;-66
2023/10/12 05:20:41;;;;;;;8.77;6.10;;;14.00;99.90;;;;;;5050399;28;20055;-66
2023/10/12 05:23:07;;;;;;;9.00;4.85;;;14.00;99.90;;;;;;5063160;28;20052;-66
2023/10/12 05:25:47;;;;;;;8.52;5.72;;;14.00;99.90;;;;;;5061224;28;20050;-66
2023/10/12 05:28:17;;;;;;;8.02;4.75;;;14.10;99.90;;;;;;5062241;28;20029;-66
2023/10/12 05:30:59;;;;;;;10.63;5.07;;;14.10;99.90;;;;;;5061237;28;20033;-66
2023/10/12 05:36:09;;;;;;;10.57;5.68;;;14.20;99.90;;;;;;5055638;28;20048;-68
2023/10/12 05:39:13;;;;;;;11.10;5.38;;;14.20;99.90;;;;;;5059072;28;20025;-66
2023/10/12 05:41:39;;;;;;;10.55;5.32;;;14.30;99.90;;;;;;5057929;28;20032;-67
2023/10/12 05:44:15;;;;;;;10.07;5.85;;;14.30;99.90;;;;;;5043070;28;20452;-67
2023/10/12 05:46:45;;;;;;;9.30;5.63;;;14.30;99.90;;;;;;5053077;28;20037;-68
2023/10/12 05:49:14;;;;;;;10.18;5.75;;;14.30;99.90;;;;;;5050121;28;20227;-68
2023/10/12 05:51:44;;;;;;;8.15;5.10;;;14.40;99.90;;;;;;5048055;28;20029;-69
2023/10/12 05:54:15;;;;;;;13.98;5.90;;;14.40;99.90;;;;;;5051649;28;20333;-68
2023/10/12 05:56:41;;;;;;;9.30;5.15;;;14.40;99.90;;;;;;5056820;28;20511;-68
2023/10/12 05:59:12;;;;;;;16.75;5.93;;;14.50;99.90;;;;;;5055588;28;20044;-69
2023/10/12 06:01:48;;;;;;;11.18;5.53;;;14.50;99.90;;;;;;5060027;28;20021;-68
2023/10/12 06:04:20;;;;;;;9.50;5.63;;;14.60;99.90;;;;;;5053879;28;20568;-68
2023/10/12 06:06:47;;;;;;;15.13;5.93;;;14.60;99.90;;;;;;5065348;28;20031;-69
2023/10/12 06:09:24;;;;;;;11.88;6.00;;;14.60;99.90;;;;;;5057530;28;20020;-68
2023/10/12 06:11:51;;;;;;;12.20;5.85;;;14.70;99.90;;;;;;5050856;28;20505;-68
2023/10/12 06:14:20;;;;;;;9.50;5.80;;;14.80;99.90;;;;;;5055009;28;20108;-68
2023/10/12 06:16:54;;;;;;;9.07;4.93;;;14.90;99.90;;;;;;5056403;28;20063;-66
2023/10/12 06:19:28;;;;;;;9.70;5.13;;;15.00;99.90;;;;;;5055359;28;20389;-65
2023/10/12 06:21:58;;;;;;;13.43;6.22;;;15.10;99.90;;;;;;5053414;28;20075;-66
2023/10/12 06:24:33;;;;;;;11.13;5.63;;;15.30;99.90;;;;;;5059126;28;20048;-64
2023/10/12 06:27:02;;;;;;;12.48;5.75;;;15.40;99.90;;;;;;5056100;28;20045;-64
2023/10/12 06:29:28;;;;;;;10.30;5.13;;;15.60;99.90;;;;;;5055487;28;20108;-64
2023/10/12 06:31:54;;;;;;;10.85;5.10;;;15.70;99.90;;;;;;5056343;28;20115;-69
2023/10/12 06:34:23;;;;;;;9.75;5.60;;;15.80;99.90;;;;;;5059236;28;20342;-69
2023/10/12 06:36:57;;;;;;;9.38;6.22;;;16.00;99.90;;;;;;5060427;28;20377;-68
2023/10/12 06:46:49;;;;;;;12.82;5.57;;;16.90;99.90;;;;;;5064890;28;20644;-67
2023/10/12 06:49:23;;;;;;;16.90;6.18;;;17.10;99.90;;;;;;5061763;28;20052;-68
2023/10/12 06:52:09;;;;;;;12.70;5.50;;;17.30;99.90;;;;;;5060741;28;20390;-67
2023/10/12 06:59:59;;;;;;;20.60;6.57;;;17.80;99.90;;;;;;5060390;28;20036;-68
2023/10/12 07:02:29;;;;;;;15.55;7.47;;;18.00;99.90;;;;;;5057598;28;20029;-69
2023/10/12 07:05:00;;;;;;;17.20;7.50;;;18.10;99.90;;;;;;5060341;28;20041;-69
2023/10/12 07:07:36;;;;;;;14.00;6.80;;;18.10;99.90;;;;;;5058438;28;20032;-68
2023/10/12 07:10:13;;;;;;;17.45;6.95;;;18.20;99.90;;;;;;5062070;28;20070;-68
2023/10/12 07:12:50;;;;;;;13.07;7.07;;;18.30;99.90;;;;;;5068053;28;20024;-69
2023/10/12 07:15:22;;;;;;;18.33;7.72;;;18.40;99.90;;;;;;5060808;28;20024;-68
2023/10/12 07:17:51;;;;;;;16.10;7.20;;;18.60;99.90;;;;;;5064820;28;20028;-69
2023/10/12 07:23:05;;;;;;;22.23;7.38;;;19.10;99.90;;;;;;5059740;28;20450;-69
2023/10/12 07:25:35;;;;;;;15.52;6.93;;;19.30;99.90;;;;;;5062591;28;20042;-69
2023/10/12 07:28:01;;;;;;;18.00;7.60;;;19.50;99.90;;;;;;5049892;28;20033;-69
2023/10/12 07:30:30;;;;;;;17.95;8.02;;;19.70;99.90;;;;;;5061641;28;20470;-69
2023/10/12 07:32:59;;;;;;;15.80;6.90;;;19.80;99.90;;;;;;5051951;28;20029;-68
2023/10/12 07:35:42;;;;;;;10.10;5.63;;;20.10;99.90;;;;;;5052427;28;20385;-69
2023/10/12 07:38:43;;;;;;;14.43;6.30;;;20.10;99.90;;;;;;5054313;28;20045;-69
2023/10/12 07:41:03;;;;;;;15.20;5.65;;;20.20;99.90;;;;;;5056983;28;20041;-69
2023/10/12 07:43:32;;;;;;;13.95;6.35;;;20.20;99.90;;;;;;5059689;28;20033;-69
2023/10/12 07:46:12;;;;;;;16.98;5.72;;;20.10;99.90;;;;;;5060057;28;20064;-69
2023/10/12 07:48:45;;;;;;;8.57;5.40;;;20.00;99.90;;;;;;5052411;28;20049;-69
2023/10/12 07:51:53;;;;;;;9.65;5.32;;;19.90;99.90;;;;;;5056536;28;20115;-68
2023/10/12 07:54:25;;;;;;;10.25;5.20;;;19.90;99.90;;;;;;5052472;28;20047;-68
2023/10/12 07:56:52;;;;;;;10.25;5.50;;;19.90;99.90;;;;;;5050330;28;20116;-68
2023/10/12 07:59:22;;;;;;;9.63;5.18;;;19.90;99.90;;;;;;5042603;28;20087;-68
2023/10/12 08:01:50;;;;;;;8.82;4.65;;;19.90;99.90;;;;;;5053408;28;20489;-68
2023/10/12 08:04:32;;;;;;;11.48;5.50;;;19.90;99.90;;;;;;5061854;28;20037;-68
2023/10/12 08:06:57;;;;;;;9.77;5.13;;;19.90;99.90;;;;;;5046593;28;20037;-68
2023/10/12 08:11:55;;;;;;;8.95;4.90;;;20.00;99.90;;;;;;5062879;28;20025;-68
2023/10/12 08:19:44;;;;;;;9.85;5.00;;;20.10;99.90;;;;;;5054822;28;20105;-68
2023/10/12 08:22:22;;;;;;;8.98;5.30;;;20.10;99.90;;;;;;5053634;28;20036;-68
2023/10/12 08:24:56;;;;;;;10.80;5.53;;;20.10;99.90;;;;;;5054108;28;20116;-68
2023/10/12 08:27:23;;;;;;;10.30;5.30;;;20.10;99.90;;;;;;5052147;28;20564;-69
2023/10/12 08:32:27;;;;;;;7.20;4.75;;;20.10;99.90;;;;;;5052344;28;20455;-69
2023/10/12 08:37:26;;;;;;;10.18;5.15;;;20.00;99.90;;;;;;5046772;28;20029;-69
2023/10/12 08:42:37;;;;;;;9.15;4.35;;;20.20;99.90;;;;;;5051382;28;20033;-68
2023/10/12 08:45:09;;;;;;;17.23;5.80;;;20.10;99.90;;;;;;5062396;28;20044;-69
2023/10/12 08:52:50;;;;;;;13.20;5.63;;;20.20;99.90;;;;;;5054960;28;20033;-67
2023/10/12 08:55:19;;;;;;;8.60;4.97;;;20.20;99.90;;;;;;5047920;28;20028;-67
2023/10/12 08:57:55;;;;;;;13.30;5.30;;;20.20;99.90;;;;;;5056229;28;20031;-67
2023/10/12 09:00:39;;;;;;;19.27;5.63;;;20.20;99.90;;;;;;5056698;28;20398;-67
2023/10/12 09:03:24;;;;;;;14.00;5.00;;;20.20;99.90;;;;;;5065034;28;20079;-67
2023/10/12 09:05:51;;;;;;;10.52;4.60;;;20.30;99.90;;;;;;5056751;28;20513;-67
2023/10/12 09:10:51;;;;;;;15.70;5.13;;;20.30;99.90;;;;;;5058590;28;20523;-66
2023/10/12 09:13:18;;;;;;;13.48;5.00;;;20.30;99.90;;;;;;5062298;28;20029;-66
2023/10/12 09:15:48;;;;;;;5.55;4.32;;;20.40;99.90;;;;;;5059476;28;20422;-66
2023/10/12 09:18:17;;;;;;;13.82;5.45;;;20.30;99.90;;;;;;5057814;28;20037;-66
2023/10/12 09:23:31;;;;;;;41.90;8.35;;;20.40;99.90;;;;;;5040410;28;20037;-66
2023/10/12 09:36:37;;;;;;;8.33;5.07;;;20.60;99.90;;;;;;5051041;28;20040;-66
2023/10/12 09:39:11;;;;;;;19.42;5.95;;;20.70;99.70;;;;;;5052283;28;20074;-66
2023/10/12 09:41:41;;;;;;;14.85;6.18;;;20.80;99.90;;;;;;5068534;28;20032;-66
2023/10/12 09:44:11;;;;;;;17.98;5.45;;;20.80;99.90;;;;;;5060644;28;20595;-68
2023/10/12 09:46:37;;;;;;;10.70;5.10;;;20.90;99.60;;;;;;5058458;28;20029;-66
2023/10/12 09:49:06;;;;;;;19.25;6.18;;;20.90;99.30;;;;;;5055695;28;20040;-67
2023/10/12 09:51:37;;;;;;;14.50;6.25;;;21.00;99.30;;;;;;5066206;28;20028;-67
2023/10/12 09:54:18;;;;;;;29.23;6.75;;;21.00;99.30;;;;;;5052558;28;20029;-67
2023/10/12 09:56:57;;;;;;;15.65;5.78;;;21.20;99.70;;;;;;5049350;28;20024;-68
2023/10/12 09:59:23;;;;;;;14.93;5.75;;;21.30;99.70;;;;;;5057162;28;20040;-68
2023/10/12 10:01:50;;;;;;;19.10;5.75;;;21.40;99.20;;;;;;5054754;28;20458;-66
2023/10/12 10:10:01;;;;;;;13.68;5.72;;;21.40;98.70;;;;;;5015586;28;20045;-67
2023/10/12 10:12:35;;;;;;;10.38;5.32;;;21.40;98.60;;;;;;5059432;28;20501;-67
2023/10/12 10:15:26;;;;;;;8.18;5.43;;;21.50;98.60;;;;;;5054463;28;20087;-67
2023/10/12 10:17:56;;;;;;;9.45;5.28;;;21.50;99.90;;;;;;5052164;28;20086;-66
2023/10/12 10:22:59;;;;;;;10.85;5.85;;;21.70;99.90;;;;;;5062606;28;20033;-67
2023/10/12 10:25:35;;;;;;;9.43;5.53;;;21.70;98.40;;;;;;5057603;28;20045;-67
2023/10/12 10:28:10;;;;;;;9.13;5.32;;;21.80;98.40;;;;;;5058081;28;20036;-67
2023/10/12 10:30:46;;;;;;;8.05;5.30;;;21.90;98.40;;;;;;5047414;28;20033;-67
2023/10/12 10:33:17;;;;;;;11.23;4.80;;;21.90;98.20;;;;;;5063294;28;20263;-67
2023/10/12 10:36:00;;;;;;;8.13;5.50;;;21.90;98.20;;;;;;5057097;28;20033;-67
2023/10/12 10:38:34;;;;;;;9.57;5.63;;;22.00;98.30;;;;;;5055787;28;20039;-67
2023/10/12 10:41:17;;;;;;;10.65;5.97;;;22.00;98.30;;;;;;5064822;28;20416;-67
2023/10/12 10:43:44;;;;;;;8.13;5.10;;;22.10;98.40;;;;;;5052586;28;20061;-68
2023/10/12 10:46:10;;;;;;;12.00;5.93;;;22.10;98.30;;;;;;5051658;28;20033;-67
2023/10/12 10:48:38;;;;;;;12.23;5.50;;;22.10;98.20;;;;;;5022875;28;1098012;-67
2023/10/12 10:51:19;;;;;;;13.30;5.82;;;22.10;98.30;;;;;;5065684;28;20032;-68
2023/10/12 10:53:52;;;;;;;9.13;5.38;;;22.10;98.20;;;;;;5054301;28;20102;-68
2023/10/12 10:56:32;;;;;;;10.73;5.68;;;22.10;98.50;;;;;;5045652;28;20367;-68
2023/10/12 10:58:59;;;;;;;14.15;5.88;;;22.00;98.40;;;;;;5044372;28;20112;-68
2023/10/12 11:01:26;;;;;;;8.90;5.15;;;22.00;98.20;;;;;;5064144;28;20037;-67
2023/10/12 11:03:52;;;;;;;9.63;5.50;;;22.00;98.50;;;;;;5057739;28;20474;-67
2023/10/12 11:06:21;;;;;;;8.52;5.32;;;22.00;98.40;;;;;;5060867;28;20028;-68
2023/10/12 11:09:07;;;;;;;7.90;5.13;;;22.10;99.90;;;;;;5062816;28;20658;-68
2023/10/12 11:11:48;;;;;;;10.55;5.60;;;22.20;99.00;;;;;;5042671;28;20060;-67
2023/10/12 11:14:17;;;;;;;11.13;4.90;;;22.30;98.80;;;;;;5062276;28;20032;-67
2023/10/12 11:16:46;;;;;;;11.80;5.75;;;22.40;98.90;;;;;;5057333;28;20021;-67
2023/10/12 11:19:12;;;;;;;11.65;5.55;;;22.50;98.80;;;;;;5055143;28;20032;-68
2023/10/12 11:21:57;;;;;;;12.80;6.60;;;22.50;98.40;;;;;;5050746;28;20033;-68
2023/10/12 11:24:24;;;;;;;29.23;9.25;;;22.60;98.30;;;;;;5052559;28;20450;-68
2023/10/12 11:26:55;;;;;;;28.10;8.15;;;22.60;98.30;;;;;;5057499;28;20044;-68
2023/10/12 11:29:25;;;;;;;10.70;6.40;;;22.70;98.20;;;;;;5047773;28;20033;-67
2023/10/12 11:32:10;;;;;;;14.75;5.60;;;22.70;98.40;;;;;;5054023;28;20040;-67
2023/10/12 11:34:52;;;;;;;8.82;6.05;;;22.80;98.40;;;;;;5064737;28;20034;-68
2023/10/12 11:37:18;;;;;;;10.07;5.80;;;22.80;97.90;;;;;;5050054;28;20033;-69
2023/10/12 11:39:45;;;;;;;12.80;7.03;;;22.90;97.80;;;;;;5056617;28;20338;-67
2023/10/12 11:42:14;;;;;;;14.07;6.70;;;22.90;98.20;;;;;;5054867;28;20048;-67
2023/10/12 11:44:43;;;;;;;12.95;5.55;;;22.90;98.20;;;;;;5052610;28;20041;-67
2023/10/12 11:47:23;;;;;;;11.40;5.78;;;23.00;98.00;;;;;;5058938;28;20123;-67
2023/10/12 11:49:49;;;;;;;9.13;5.87;;;23.10;97.70;;;;;;5064728;28;20106;-67
2023/10/12 11:52:29;;;;;;;10.05;6.25;;;23.20;97.70;;;;;;5059891;28;20040;-67
2023/10/12 11:55:07;;;;;;;20.17;6.90;;;23.30;97.70;;;;;;5057058;28;20074;-67
2023/10/12 11:57:40;;;;;;;17.05;6.40;;;23.50;99.90;;;;;;5059894;28;20021;-67
2023/10/12 12:00:14;;;;;;;12.55;6.70;;;23.80;99.90;;;;;;5062540;28;20029;-67
2023/10/12 12:02:41;;;;;;;14.30;6.70;;;23.90;99.90;;;;;;5056848;28;20112;-67
2023/10/12 12:05:11;;;;;;;15.52;6.65;;;23.90;99.90;;;;;;5050260;28;20123;-67
2023/10/12 12:07:37;;;;;;;11.35;6.75;;;23.90;99.90;;;;;;5055218;28;20055;-67
2023/10/12 12:10:03;;;;;;;21.20;7.22;;;23.90;99.90;;;;;;5059950;28;20478;-67
2023/10/12 12:12:29;;;;;;;14.45;7.32;;;23.90;99.90;;;;;;5052405;28;20021;-66
2023/10/12 12:14:54;;;;;;;15.48;6.70;;;23.70;99.90;;;;;;5059543;28;20078;-66
2023/10/12 12:17:20;;;;;;;13.32;6.30;;;23.70;99.90;;;;;;5049540;28;20052;-66
2023/10/12 12:19:45;;;;;;;12.88;6.35;;;23.60;99.90;;;;;;5063079;28;20444;-67
2023/10/12 12:22:11;;;;;;;14.82;6.57;;;23.40;99.90;;;;;;5057832;28;20082;-67
2023/10/12 12:24:41;;;;;;;13.68;5.53;;;23.20;99.90;;;;;;5065714;28;20071;-66
2023/10/12 12:27:32;;;;;;;17.02;6.25;;;23.10;99.90;;;;;;5056115;28;20031;-67
2023/10/12 12:29:54;;;;;;;19.35;6.82;;;23.00;99.90;;;;;;5042334;28;20033;-66
2023/10/12 12:32:20;;;;;;;13.55;6.15;;;22.90;99.90;;;;;;5057853;28;20481;-66
2023/10/12 12:34:47;;;;;;;13.48;5.63;;;22.80;99.90;;;;;;5067063;28;20115;-67
2023/10/12 12:37:17;;;;;;;9.55;6.75;;;22.70;99.90;;;;;;5044488;28;20125;-68
2023/10/12 12:39:43;;;;;;;11.37;5.47;;;22.70;99.90;;;;;;5059424;28;20029;-67
2023/10/12 12:42:11;;;;;;;13.30;5.97;;;22.70;99.90;;;;;;5066939;28;20429;-68
2023/10/12 12:44:39;;;;;;;12.93;6.30;;;22.70;99.90;;;;;;5056577;28;20029;-68
2023/10/12 12:47:09;;;;;;;15.68;5.72;;;22.70;99.90;;;;;;5045505;28;20017;-68
2023/10/12 12:49:35;;;;;;;16.35;5.43;;;22.70;99.90;;;;;;5061424;28;20122;-67
2023/10/12 12:52:00;;;;;;;10.75;5.65;;;22.70;99.90;;;;;;5050709;28;20068;-67
2023/10/12 12:54:26;;;;;;;23.48;6.63;;;22.70;99.90;;;;;;5053324;28;20102;-67
2023/10/12 12:56:54;;;;;;;10.70;5.95;;;22.70;99.90;;;;;;5051935;28;20029;-67
2023/10/12 12:59:24;;;;;;;16.75;6.70;;;22.70;99.90;;;;;;5045650;28;20474;-67
2023/10/12 13:01:50;;;;;;;17.40;6.53;;;22.60;99.90;;;;;;5057390;28;20017;-67
2023/10/12 13:04:17;;;;;;;12.30;6.30;;;22.60;99.90;;;;;;5055609;28;20295;-67
2023/10/12 13:06:43;;;;;;;12.15;6.30;;;22.60;99.90;;;;;;5055180;28;20463;-67
2023/10/12 13:09:28;;;;;;;8.88;5.50;;;22.40;99.90;;;;;;5055865;28;20043;-67
2023/10/12 13:11:54;;;;;;;28.52;6.97;;;22.30;99.90;;;;;;5054269;28;20025;-67
2023/10/12 13:14:20;;;;;;;16.15;6.60;;;22.20;99.90;;;;;;5063259;28;20461;-67
2023/10/12 13:16:46;;;;;;;18.58;6.68;;;22.30;99.90;;;;;;5061480;28;20044;-67
2023/10/12 13:19:11;;;;;;;11.68;6.00;;;22.30;99.90;;;;;;5031991;28;20100;-67
2023/10/12 13:21:41;;;;;;;9.13;5.80;;;22.30;99.90;;;;;;5056532;28;20032;-67
2023/10/12 13:24:08;;;;;;;13.32;6.68;;;22.30;99.90;;;;;;5042971;28;20041;-67
2023/10/12 13:26:34;;;;;;;12.85;6.10;;;22.30;99.90;;;;;;5049083;28;20087;-67
2023/10/12 13:29:01;;;;;;;19.05;5.93;;;22.40;99.90;;;;;;5043041;28;20037;-66
2023/10/12 13:31:28;;;;;;;19.48;5.93;;;22.40;99.90;;;;;;5049160;28;20025;-68
2023/10/12 13:33:54;;;;;;;53.40;8.40;;;22.60;99.90;;;;;;5053691;28;20033;-67
2023/10/12 13:36:21;;;;;;;22.23;6.72;;;22.60;99.90;;;;;;5051692;28;20466;-69
2023/10/12 13:38:46;;;;;;;26.23;6.88;;;22.70;99.90;;;;;;5048298;28;20025;-69
2023/10/12 13:41:12;;;;;;;14.73;7.00;;;22.80;99.90;;;;;;5060221;28;20056;-68
2023/10/12 13:43:38;;;;;;;13.57;6.10;;;22.80;99.90;;;;;;5054669;28;20029;-68
2023/10/12 13:46:11;;;;;;;13.65;6.10;;;22.80;99.90;;;;;;5053273;28;20022;-68
2023/10/12 13:48:37;;;;;;;18.17;5.97;;;22.80;99.90;;;;;;5055966;28;20041;-67
2023/10/12 13:51:20;;;;;;;12.05;6.55;;;22.90;99.90;;;;;;5067027;28;20055;-68
2023/10/12 13:53:46;;;;;;;14.07;6.25;;;22.90;99.90;;;;;;5055494;28;20033;-68
2023/10/12 13:56:12;;;;;;;14.98;5.97;;;23.00;99.90;;;;;;5060302;28;20031;-67
2023/10/12 13:58:39;;;;;;;7.93;5.40;;;23.00;99.90;;;;;;5053467;28;20033;-67
2023/10/12 14:01:13;;;;;;;14.27;5.55;;;23.00;99.90;;;;;;5060335;28;20036;-67
2023/10/12 14:03:41;;;;;;;12.48;6.30;;;23.00;99.90;;;;;;5058475;28;20024;-67
2023/10/12 14:06:07;;;;;;;13.75;5.78;;;23.00;99.90;;;;;;5057718;28;20108;-67
2023/10/12 14:08:36;;;;;;;23.98;6.70;;;23.00;99.90;;;;;;5066429;28;20044;-67
2023/10/12 14:11:06;;;;;;;19.90;6.68;;;23.10;99.90;;;;;;5058810;28;20025;-67
2023/10/12 14:13:33;;;;;;;12.50;5.70;;;23.10;99.90;;;;;;5061304;28;20473;-67
2023/10/12 14:16:00;;;;;;;12.50;6.90;;;23.00;99.90;;;;;;5051373;28;20028;-67
2023/10/12 14:18:30;;;;;;;14.75;6.47;;;23.10;99.90;;;;;;5039881;28;20034;-67
2023/10/12 14:20:56;;;;;;;18.42;6.60;;;23.10;99.90;;;;;;5051585;28;20029;-67
2023/10/12 14:23:26;;;;;;;10.93;5.40;;;23.20;99.90;;;;;;5062844;28;20036;-67
2023/10/12 14:25:54;;;;;;;10.75;5.85;;;23.20;99.90;;;;;;5066784;28;20037;-67
2023/10/12 14:28:20;;;;;;;12.60;7.97;;;23.20;99.90;;;;;;5056680;28;20032;-67
2023/10/12 14:30:53;;;;;;;17.10;7.97;;;23.20;99.90;;;;;;5055267;28;20029;-67
2023/10/12 14:33:19;;;;;;;21.10;8.40;;;23.20;99.90;;;;;;5050994;28;20018;-67
2023/10/12 14:35:45;;;;;;;16.52;8.07;;;23.30;99.90;;;;;;5065202;28;20033;-67
2023/10/12 14:38:14;;;;;;;17.95;7.88;;;23.20;99.90;;;;;;5052063;28;20067;-67
2023/10/12 14:40:42;;;;;;;15.05;8.32;;;23.20;99.90;;;;;;5063914;28;20024;-67
2023/10/12 14:43:12;;;;;;;12.43;7.97;;;23.20;99.90;;;;;;5067016;28;20445;-67
2023/10/12 14:45:45;;;;;;;15.15;7.38;;;23.20;99.90;;;;;;5062699;28;20033;-67
2023/10/12 14:48:11;;;;;;;16.33;7.82;;;23.20;99.90;;;;;;5057682;28;20969;-67
2023/10/12 14:50:45;;;;;;;13.52;7.68;;;23.20;99.90;;;;;;5065524;28;20104;-67
2023/10/12 14:53:13;;;;;;;16.60;6.90;;;23.20;99.90;;;;;;5064643;28;20025;-67
2023/10/12 14:55:40;;;;;;;10.45;6.95;;;23.20;99.90;;;;;;5057914;28;20036;-67